sensor_id;sensor_type;location;lat;lon;timestamp;temperature;humidity
69359;HTU21D;56520;49.066;8.660;2023-02-19T00:00:54;9.45;83.80
69359;HTU21D;56520;49.066;8.660;2023-02-19T00:03:19;9.39;84.19
69359;HTU21D;56520;49.066;8.660;2023-02-19T00:05:44;9.39;84.29
69359;HTU21D;56520;49.066;8.660;2023-02-19T00:08:10;9.41;84.24
69359;HTU21D;56520;49.066;8.660;2023-02-19T00:10:35;9.47;84.10
69359;HTU21D;56520;49.066;8.660;2023-02-19T00:13:00;9.48;83.81
69359;HTU21D;56520;49.066;8.660;2023-02-19T00:15:31;9.45;84.05
69359;HTU21D;56520;49.066;8.660;2023-02-19T00:17:57;9.45;84.29
69359;HTU21D;56520;49.066;8.660;2023-02-19T00:20:23;9.40;84.54
69359;HTU21D;56520;49.066;8.660;2023-02-19T00:22:48;9.48;84.43
69359;HTU21D;56520;49.066;8.660;2023-02-19T00:25:14;9.47;84.29
69359;HTU21D;56520;49.066;8.660;2023-02-19T00:27:39;9.46;84.48
69359;HTU21D;56520;49.066;8.660;2023-02-19T00:30:05;9.50;84.52
69359;HTU21D;56520;49.066;8.660;2023-02-19T00:32:30;9.49;84.48
69359;HTU21D;56520;49.066;8.660;2023-02-19T00:34:56;9.44;84.86
69359;HTU21D;56520;49.066;8.660;2023-02-19T00:37:21;9.46;84.68
69359;HTU21D;56520;49.066;8.660;2023-02-19T00:39:47;9.42;84.84
69359;HTU21D;56520;49.066;8.660;2023-02-19T00:42:12;9.37;84.97
69359;HTU21D;56520;49.066;8.660;2023-02-19T00:44:38;9.35;85.29
69359;HTU21D;56520;49.066;8.660;2023-02-19T00:47:03;9.37;85.44
69359;HTU21D;56520;49.066;8.660;2023-02-19T00:49:28;9.50;84.84
69359;HTU21D;56520;49.066;8.660;2023-02-19T00:51:54;9.60;84.29
69359;HTU21D;56520;49.066;8.660;2023-02-19T00:54:20;9.59;84.17
69359;HTU21D;56520;49.066;8.660;2023-02-19T00:56:47;9.54;84.42
69359;HTU21D;56520;49.066;8.660;2023-02-19T00:59:13;9.47;84.69
69359;HTU21D;56520;49.066;8.660;2023-02-19T01:01:38;9.42;84.90
69359;HTU21D;56520;49.066;8.660;2023-02-19T01:04:04;9.50;84.66
69359;HTU21D;56520;49.066;8.660;2023-02-19T01:06:29;9.47;84.74
69359;HTU21D;56520;49.066;8.660;2023-02-19T01:08:57;9.48;84.71
69359;HTU21D;56520;49.066;8.660;2023-02-19T01:11:22;9.48;84.76
69359;HTU21D;56520;49.066;8.660;2023-02-19T01:13:48;9.46;84.87
69359;HTU21D;56520;49.066;8.660;2023-02-19T01:16:19;9.50;84.73
69359;HTU21D;56520;49.066;8.660;2023-02-19T01:18:45;9.49;84.78
69359;HTU21D;56520;49.066;8.660;2023-02-19T01:21:14;9.50;84.91
69359;HTU21D;56520;49.066;8.660;2023-02-19T01:23:40;9.53;84.71
69359;HTU21D;56520;49.066;8.660;2023-02-19T01:26:07;9.60;84.42
69359;HTU21D;56520;49.066;8.660;2023-02-19T01:28:33;9.71;83.82
69359;HTU21D;56520;49.066;8.660;2023-02-19T01:31:03;9.67;84.11
69359;HTU21D;56520;49.066;8.660;2023-02-19T01:33:28;9.55;84.52
69359;HTU21D;56520;49.066;8.660;2023-02-19T01:35:54;9.49;84.98
69359;HTU21D;56520;49.066;8.660;2023-02-19T01:38:22;9.46;85.65
69359;HTU21D;56520;49.066;8.660;2023-02-19T01:40:59;9.41;86.03
69359;HTU21D;56520;49.066;8.660;2023-02-19T01:43:25;9.44;86.40
69359;HTU21D;56520;49.066;8.660;2023-02-19T01:45:54;9.40;87.05
69359;HTU21D;56520;49.066;8.660;2023-02-19T01:48:23;9.38;87.04
69359;HTU21D;56520;49.066;8.660;2023-02-19T01:50:53;9.36;87.32
69359;HTU21D;56520;49.066;8.660;2023-02-19T01:53:23;9.44;86.94
69359;HTU21D;56520;49.066;8.660;2023-02-19T01:55:52;9.36;86.70
69359;HTU21D;56520;49.066;8.660;2023-02-19T01:58:19;9.35;86.78
69359;HTU21D;56520;49.066;8.660;2023-02-19T02:00:46;9.38;86.56
69359;HTU21D;56520;49.066;8.660;2023-02-19T02:03:11;9.34;86.64
69359;HTU21D;56520;49.066;8.660;2023-02-19T02:06:01;9.33;86.38
69359;HTU21D;56520;49.066;8.660;2023-02-19T02:08:30;9.36;86.32
69359;HTU21D;56520;49.066;8.660;2023-02-19T02:11:14;9.33;86.51
69359;HTU21D;56520;49.066;8.660;2023-02-19T02:13:40;9.31;86.90
69359;HTU21D;56520;49.066;8.660;2023-02-19T02:20:00;9.34;86.56
69359;HTU21D;56520;49.066;8.660;2023-02-19T02:22:14;9.35;86.33
69359;HTU21D;56520;49.066;8.660;2023-02-19T02:25:04;9.35;86.79
69359;HTU21D;56520;49.066;8.660;2023-02-19T02:28:00;9.34;86.86
69359;HTU21D;56520;49.066;8.660;2023-02-19T02:30:38;9.34;86.89
69359;HTU21D;56520;49.066;8.660;2023-02-19T02:33:30;9.34;86.96
69359;HTU21D;56520;49.066;8.660;2023-02-19T02:36:09;9.30;87.67
69359;HTU21D;56520;49.066;8.660;2023-02-19T02:38:39;9.26;87.72
69359;HTU21D;56520;49.066;8.660;2023-02-19T02:41:05;9.29;87.45
69359;HTU21D;56520;49.066;8.660;2023-02-19T02:43:31;9.24;87.57
69359;HTU21D;56520;49.066;8.660;2023-02-19T02:45:57;9.24;87.83
69359;HTU21D;56520;49.066;8.660;2023-02-19T02:48:26;9.23;87.51
69359;HTU21D;56520;49.066;8.660;2023-02-19T02:53:46;9.20;87.61
69359;HTU21D;56520;49.066;8.660;2023-02-19T02:56:32;9.20;87.62
69359;HTU21D;56520;49.066;8.660;2023-02-19T02:59:00;9.22;87.42
69359;HTU21D;56520;49.066;8.660;2023-02-19T03:01:31;9.20;87.32
69359;HTU21D;56520;49.066;8.660;2023-02-19T03:04:28;9.30;86.38
69359;HTU21D;56520;49.066;8.660;2023-02-19T03:06:58;9.30;86.16
69359;HTU21D;56520;49.066;8.660;2023-02-19T03:09:32;9.25;86.35
69359;HTU21D;56520;49.066;8.660;2023-02-19T03:12:01;9.30;86.11
69359;HTU21D;56520;49.066;8.660;2023-02-19T03:14:49;9.31;85.80
69359;HTU21D;56520;49.066;8.660;2023-02-19T03:17:52;9.39;84.84
69359;HTU21D;56520;49.066;8.660;2023-02-19T03:20:42;9.41;84.61
69359;HTU21D;56520;49.066;8.660;2023-02-19T03:23:10;9.40;84.58
69359;HTU21D;56520;49.066;8.660;2023-02-19T03:25:36;9.41;84.14
69359;HTU21D;56520;49.066;8.660;2023-02-19T03:28:23;9.34;84.52
69359;HTU21D;56520;49.066;8.660;2023-02-19T03:31:14;9.32;84.60
69359;HTU21D;56520;49.066;8.660;2023-02-19T03:33:42;9.38;84.16
69359;HTU21D;56520;49.066;8.660;2023-02-19T03:36:12;9.41;84.04
69359;HTU21D;56520;49.066;8.660;2023-02-19T03:38:52;9.44;83.93
69359;HTU21D;56520;49.066;8.660;2023-02-19T03:41:45;9.47;83.61
69359;HTU21D;56520;49.066;8.660;2023-02-19T03:46:57;9.42;83.87
69359;HTU21D;56520;49.066;8.660;2023-02-19T03:49:38;9.52;83.42
69359;HTU21D;56520;49.066;8.660;2023-02-19T03:54:33;9.45;83.78
69359;HTU21D;56520;49.066;8.660;2023-02-19T03:57:06;9.44;84.06
69359;HTU21D;56520;49.066;8.660;2023-02-19T03:59:41;9.42;83.91
69359;HTU21D;56520;49.066;8.660;2023-02-19T04:02:12;9.40;84.38
69359;HTU21D;56520;49.066;8.660;2023-02-19T04:04:44;9.40;84.42
69359;HTU21D;56520;49.066;8.660;2023-02-19T04:07:12;9.31;84.74
69359;HTU21D;56520;49.066;8.660;2023-02-19T04:09:41;9.33;84.85
69359;HTU21D;56520;49.066;8.660;2023-02-19T04:12:09;9.41;84.68
69359;HTU21D;56520;49.066;8.660;2023-02-19T04:14:40;9.36;85.19
69359;HTU21D;56520;49.066;8.660;2023-02-19T04:17:14;9.24;86.06
69359;HTU21D;56520;49.066;8.660;2023-02-19T04:19:41;9.23;86.55
69359;HTU21D;56520;49.066;8.660;2023-02-19T04:22:07;9.17;87.34
69359;HTU21D;56520;49.066;8.660;2023-02-19T04:24:38;9.24;86.96
69359;HTU21D;56520;49.066;8.660;2023-02-19T04:27:05;9.11;87.32
69359;HTU21D;56520;49.066;8.660;2023-02-19T04:29:31;9.10;87.94
69359;HTU21D;56520;49.066;8.660;2023-02-19T04:31:59;9.09;88.43
69359;HTU21D;56520;49.066;8.660;2023-02-19T04:34:24;9.09;88.06
69359;HTU21D;56520;49.066;8.660;2023-02-19T04:36:50;9.01;88.23
69359;HTU21D;56520;49.066;8.660;2023-02-19T04:39:15;8.97;88.29
69359;HTU21D;56520;49.066;8.660;2023-02-19T04:41:41;9.02;87.99
69359;HTU21D;56520;49.066;8.660;2023-02-19T04:44:06;8.92;88.39
69359;HTU21D;56520;49.066;8.660;2023-02-19T04:46:31;8.97;88.41
69359;HTU21D;56520;49.066;8.660;2023-02-19T04:48:57;9.00;88.50
69359;HTU21D;56520;49.066;8.660;2023-02-19T04:51:22;9.01;88.81
69359;HTU21D;56520;49.066;8.660;2023-02-19T04:53:48;9.03;88.64
69359;HTU21D;56520;49.066;8.660;2023-02-19T04:56:14;9.04;88.86
69359;HTU21D;56520;49.066;8.660;2023-02-19T04:58:41;8.94;89.50
69359;HTU21D;56520;49.066;8.660;2023-02-19T05:01:06;8.94;89.75
69359;HTU21D;56520;49.066;8.660;2023-02-19T05:03:35;8.94;89.69
69359;HTU21D;56520;49.066;8.660;2023-02-19T05:06:11;8.95;89.34
69359;HTU21D;56520;49.066;8.660;2023-02-19T05:08:37;8.93;89.03
69359;HTU21D;56520;49.066;8.660;2023-02-19T05:11:05;8.90;89.40
69359;HTU21D;56520;49.066;8.660;2023-02-19T05:13:31;8.97;89.16
69359;HTU21D;56520;49.066;8.660;2023-02-19T05:15:58;8.95;89.33
69359;HTU21D;56520;49.066;8.660;2023-02-19T05:18:25;9.04;89.67
69359;HTU21D;56520;49.066;8.660;2023-02-19T05:20:50;8.95;90.71
69359;HTU21D;56520;49.066;8.660;2023-02-19T05:23:16;8.91;91.01
69359;HTU21D;56520;49.066;8.660;2023-02-19T05:25:42;8.90;91.17
69359;HTU21D;56520;49.066;8.660;2023-02-19T05:28:07;8.78;91.89
69359;HTU21D;56520;49.066;8.660;2023-02-19T05:30:46;8.65;92.30
69359;HTU21D;56520;49.066;8.660;2023-02-19T05:33:12;8.62;92.56
69359;HTU21D;56520;49.066;8.660;2023-02-19T05:35:43;8.70;92.11
69359;HTU21D;56520;49.066;8.660;2023-02-19T05:38:09;8.80;91.57
69359;HTU21D;56520;49.066;8.660;2023-02-19T05:40:34;8.80;91.11
69359;HTU21D;56520;49.066;8.660;2023-02-19T05:43:00;8.77;91.08
69359;HTU21D;56520;49.066;8.660;2023-02-19T05:45:25;8.78;91.11
69359;HTU21D;56520;49.066;8.660;2023-02-19T05:47:51;8.78;91.33
69359;HTU21D;56520;49.066;8.660;2023-02-19T05:50:16;8.89;90.46
69359;HTU21D;56520;49.066;8.660;2023-02-19T05:52:42;8.86;90.37
69359;HTU21D;56520;49.066;8.660;2023-02-19T05:55:09;8.75;90.94
69359;HTU21D;56520;49.066;8.660;2023-02-19T05:57:41;8.76;90.99
69359;HTU21D;56520;49.066;8.660;2023-02-19T06:00:13;8.72;91.23
69359;HTU21D;56520;49.066;8.660;2023-02-19T06:02:38;8.74;91.22
69359;HTU21D;56520;49.066;8.660;2023-02-19T06:05:04;8.74;91.15
69359;HTU21D;56520;49.066;8.660;2023-02-19T06:07:31;8.75;91.08
69359;HTU21D;56520;49.066;8.660;2023-02-19T06:09:56;8.76;91.10
69359;HTU21D;56520;49.066;8.660;2023-02-19T06:12:22;8.75;91.09
69359;HTU21D;56520;49.066;8.660;2023-02-19T06:14:48;8.78;90.82
69359;HTU21D;56520;49.066;8.660;2023-02-19T06:17:13;8.80;90.81
69359;HTU21D;56520;49.066;8.660;2023-02-19T06:19:38;8.80;90.79
69359;HTU21D;56520;49.066;8.660;2023-02-19T06:22:04;8.85;90.40
69359;HTU21D;56520;49.066;8.660;2023-02-19T06:24:29;8.87;90.27
69359;HTU21D;56520;49.066;8.660;2023-02-19T06:26:55;8.81;90.49
69359;HTU21D;56520;49.066;8.660;2023-02-19T06:29:20;8.76;90.77
69359;HTU21D;56520;49.066;8.660;2023-02-19T06:31:46;8.80;90.55
69359;HTU21D;56520;49.066;8.660;2023-02-19T06:34:11;8.80;90.82
69359;HTU21D;56520;49.066;8.660;2023-02-19T06:36:37;8.80;90.67
69359;HTU21D;56520;49.066;8.660;2023-02-19T06:39:03;8.79;90.86
69359;HTU21D;56520;49.066;8.660;2023-02-19T06:41:29;8.70;91.21
69359;HTU21D;56520;49.066;8.660;2023-02-19T06:43:56;8.65;91.63
69359;HTU21D;56520;49.066;8.660;2023-02-19T06:46:21;8.61;91.82
69359;HTU21D;56520;49.066;8.660;2023-02-19T06:48:47;8.61;92.37
69359;HTU21D;56520;49.066;8.660;2023-02-19T06:51:14;8.67;91.91
69359;HTU21D;56520;49.066;8.660;2023-02-19T06:53:40;8.59;92.28
69359;HTU21D;56520;49.066;8.660;2023-02-19T06:56:20;8.57;92.79
69359;HTU21D;56520;49.066;8.660;2023-02-19T06:58:46;8.51;92.85
69359;HTU21D;56520;49.066;8.660;2023-02-19T07:01:12;8.57;92.74
69359;HTU21D;56520;49.066;8.660;2023-02-19T07:03:37;8.55;93.06
69359;HTU21D;56520;49.066;8.660;2023-02-19T07:06:03;8.53;93.21
69359;HTU21D;56520;49.066;8.660;2023-02-19T07:08:28;8.45;93.37
69359;HTU21D;56520;49.066;8.660;2023-02-19T07:10:56;8.39;93.68
69359;HTU21D;56520;49.066;8.660;2023-02-19T07:13:22;8.48;93.74
69359;HTU21D;56520;49.066;8.660;2023-02-19T07:15:48;8.43;93.71
69359;HTU21D;56520;49.066;8.660;2023-02-19T07:18:13;8.46;93.98
69359;HTU21D;56520;49.066;8.660;2023-02-19T07:20:39;8.61;93.39
69359;HTU21D;56520;49.066;8.660;2023-02-19T07:23:04;8.60;93.27
69359;HTU21D;56520;49.066;8.660;2023-02-19T07:25:30;8.56;93.59
69359;HTU21D;56520;49.066;8.660;2023-02-19T07:27:55;8.50;93.69
69359;HTU21D;56520;49.066;8.660;2023-02-19T07:30:21;8.47;93.91
69359;HTU21D;56520;49.066;8.660;2023-02-19T07:32:46;8.50;93.69
69359;HTU21D;56520;49.066;8.660;2023-02-19T07:35:12;8.55;93.57
69359;HTU21D;56520;49.066;8.660;2023-02-19T07:37:37;8.53;93.87
69359;HTU21D;56520;49.066;8.660;2023-02-19T07:40:03;8.59;93.49
69359;HTU21D;56520;49.066;8.660;2023-02-19T07:42:28;8.67;93.02
69359;HTU21D;56520;49.066;8.660;2023-02-19T07:44:54;8.66;93.40
69359;HTU21D;56520;49.066;8.660;2023-02-19T07:47:19;8.57;93.50
69359;HTU21D;56520;49.066;8.660;2023-02-19T07:49:44;8.48;93.88
69359;HTU21D;56520;49.066;8.660;2023-02-19T07:52:10;8.48;94.14
69359;HTU21D;56520;49.066;8.660;2023-02-19T07:54:35;8.50;93.62
69359;HTU21D;56520;49.066;8.660;2023-02-19T07:57:01;8.50;93.68
69359;HTU21D;56520;49.066;8.660;2023-02-19T07:59:26;8.58;93.62
69359;HTU21D;56520;49.066;8.660;2023-02-19T08:01:51;8.57;93.29
69359;HTU21D;56520;49.066;8.660;2023-02-19T08:04:35;8.61;93.02
69359;HTU21D;56520;49.066;8.660;2023-02-19T08:07:01;8.57;92.98
69359;HTU21D;56520;49.066;8.660;2023-02-19T08:09:26;8.65;92.66
69359;HTU21D;56520;49.066;8.660;2023-02-19T08:11:52;8.80;91.79
69359;HTU21D;56520;49.066;8.660;2023-02-19T08:14:36;8.90;90.91
69359;HTU21D;56520;49.066;8.660;2023-02-19T08:17:01;9.07;89.83
69359;HTU21D;56520;49.066;8.660;2023-02-19T08:19:27;9.06;89.80
69359;HTU21D;56520;49.066;8.660;2023-02-19T08:21:52;9.18;89.25
69359;HTU21D;56520;49.066;8.660;2023-02-19T08:24:18;9.26;88.60
69359;HTU21D;56520;49.066;8.660;2023-02-19T08:26:43;9.30;88.53
69359;HTU21D;56520;49.066;8.660;2023-02-19T08:29:09;9.37;87.84
69359;HTU21D;56520;49.066;8.660;2023-02-19T08:31:34;9.36;87.86
69359;HTU21D;56520;49.066;8.660;2023-02-19T08:34:00;9.38;88.03
69359;HTU21D;56520;49.066;8.660;2023-02-19T08:36:25;9.37;87.98
69359;HTU21D;56520;49.066;8.660;2023-02-19T08:38:51;9.38;87.92
69359;HTU21D;56520;49.066;8.660;2023-02-19T08:41:16;9.44;87.32
69359;HTU21D;56520;49.066;8.660;2023-02-19T08:43:42;9.41;88.15
69359;HTU21D;56520;49.066;8.660;2023-02-19T08:46:09;9.47;87.22
69359;HTU21D;56520;49.066;8.660;2023-02-19T08:48:35;9.50;87.59
69359;HTU21D;56520;49.066;8.660;2023-02-19T08:51:04;9.59;86.95
69359;HTU21D;56520;49.066;8.660;2023-02-19T08:53:31;9.60;86.51
69359;HTU21D;56520;49.066;8.660;2023-02-19T08:55:57;9.69;86.21
69359;HTU21D;56520;49.066;8.660;2023-02-19T08:58:22;9.76;85.49
69359;HTU21D;56520;49.066;8.660;2023-02-19T09:00:51;9.82;85.19
69359;HTU21D;56520;49.066;8.660;2023-02-19T09:03:16;9.92;84.42
69359;HTU21D;56520;49.066;8.660;2023-02-19T09:05:42;9.99;83.67
69359;HTU21D;56520;49.066;8.660;2023-02-19T09:08:08;9.96;83.99
69359;HTU21D;56520;49.066;8.660;2023-02-19T09:10:33;9.95;84.38
69359;HTU21D;56520;49.066;8.660;2023-02-19T09:12:59;9.97;84.05
69359;HTU21D;56520;49.066;8.660;2023-02-19T09:15:25;10.24;83.56
69359;HTU21D;56520;49.066;8.660;2023-02-19T09:17:53;10.78;80.77
69359;HTU21D;56520;49.066;8.660;2023-02-19T09:20:18;11.04;79.92
69359;HTU21D;56520;49.066;8.660;2023-02-19T09:22:44;11.57;78.47
69359;HTU21D;56520;49.066;8.660;2023-02-19T09:25:09;11.97;75.83
69359;HTU21D;56520;49.066;8.660;2023-02-19T09:27:35;11.83;74.39
69359;HTU21D;56520;49.066;8.660;2023-02-19T09:30:00;11.46;76.46
69359;HTU21D;56520;49.066;8.660;2023-02-19T09:32:29;11.42;76.79
69359;HTU21D;56520;49.066;8.660;2023-02-19T09:34:54;11.40;76.61
69359;HTU21D;56520;49.066;8.660;2023-02-19T09:37:25;11.36;76.44
69359;HTU21D;56520;49.066;8.660;2023-02-19T09:39:51;11.19;77.71
69359;HTU21D;56520;49.066;8.660;2023-02-19T09:42:19;11.10;78.34
69359;HTU21D;56520;49.066;8.660;2023-02-19T09:44:49;11.14;78.35
69359;HTU21D;56520;49.066;8.660;2023-02-19T09:47:18;11.11;78.08
69359;HTU21D;56520;49.066;8.660;2023-02-19T09:49:47;11.17;77.02
69359;HTU21D;56520;49.066;8.660;2023-02-19T09:55:08;11.52;76.37
69359;HTU21D;56520;49.066;8.660;2023-02-19T09:57:37;12.07;75.15
69359;HTU21D;56520;49.066;8.660;2023-02-19T10:00:13;12.41;73.06
69359;HTU21D;56520;49.066;8.660;2023-02-19T10:02:43;12.21;73.20
69359;HTU21D;56520;49.066;8.660;2023-02-19T10:05:11;11.90;74.31
69359;HTU21D;56520;49.066;8.660;2023-02-19T10:07:45;11.64;74.91
69359;HTU21D;56520;49.066;8.660;2023-02-19T10:12:39;11.46;75.86
69359;HTU21D;56520;49.066;8.660;2023-02-19T10:15:31;11.39;75.64
69359;HTU21D;56520;49.066;8.660;2023-02-19T10:17:57;11.31;75.54
69359;HTU21D;56520;49.066;8.660;2023-02-19T10:20:24;11.16;76.50
69359;HTU21D;56520;49.066;8.660;2023-02-19T10:25:33;10.99;78.52
69359;HTU21D;56520;49.066;8.660;2023-02-19T10:28:02;10.92;79.26
69359;HTU21D;56520;49.066;8.660;2023-02-19T10:30:34;10.92;79.59
69359;HTU21D;56520;49.066;8.660;2023-02-19T10:33:12;10.85;79.43
69359;HTU21D;56520;49.066;8.660;2023-02-19T10:35:57;10.71;80.01
69359;HTU21D;56520;49.066;8.660;2023-02-19T10:41:07;10.44;80.20
69359;HTU21D;56520;49.066;8.660;2023-02-19T10:43:39;10.53;79.74
69359;HTU21D;56520;49.066;8.660;2023-02-19T10:48:48;11.44;78.17
69359;HTU21D;56520;49.066;8.660;2023-02-19T10:51:14;12.00;74.81
69359;HTU21D;56520;49.066;8.660;2023-02-19T10:53:48;12.12;72.53
69359;HTU21D;56520;49.066;8.660;2023-02-19T10:56:26;12.03;72.83
69359;HTU21D;56520;49.066;8.660;2023-02-19T10:58:53;11.94;72.49
69359;HTU21D;56520;49.066;8.660;2023-02-19T11:01:23;11.85;72.09
69359;HTU21D;56520;49.066;8.660;2023-02-19T11:04:13;11.76;73.50
69359;HTU21D;56520;49.066;8.660;2023-02-19T11:06:39;11.83;72.92
69359;HTU21D;56520;49.066;8.660;2023-02-19T11:09:05;11.84;72.90
69359;HTU21D;56520;49.066;8.660;2023-02-19T11:11:40;11.78;73.54
69359;HTU21D;56520;49.066;8.660;2023-02-19T11:14:17;11.78;72.51
69359;HTU21D;56520;49.066;8.660;2023-02-19T11:16:46;11.68;73.40
69359;HTU21D;56520;49.066;8.660;2023-02-19T11:24:55;11.37;75.94
69359;HTU21D;56520;49.066;8.660;2023-02-19T11:27:23;11.36;76.24
69359;HTU21D;56520;49.066;8.660;2023-02-19T11:29:49;11.33;75.42
69359;HTU21D;56520;49.066;8.660;2023-02-19T11:34:46;11.47;74.51
69359;HTU21D;56520;49.066;8.660;2023-02-19T11:37:14;11.45;74.86
69359;HTU21D;56520;49.066;8.660;2023-02-19T11:39:43;11.55;74.73
69359;HTU21D;56520;49.066;8.660;2023-02-19T11:50:56;11.55;75.45
69359;HTU21D;56520;49.066;8.660;2023-02-19T11:53:29;11.44;75.79
69359;HTU21D;56520;49.066;8.660;2023-02-19T11:56:33;11.42;75.69
69359;HTU21D;56520;49.066;8.660;2023-02-19T11:59:17;11.45;75.00
69359;HTU21D;56520;49.066;8.660;2023-02-19T12:02:05;11.46;74.60
69359;HTU21D;56520;49.066;8.660;2023-02-19T12:10:10;11.56;74.42
69359;HTU21D;56520;49.066;8.660;2023-02-19T12:26:46;11.36;75.71
69359;HTU21D;56520;49.066;8.660;2023-02-19T12:35:04;11.75;73.94
69359;HTU21D;56520;49.066;8.660;2023-02-19T12:40:27;12.21;72.77
69359;HTU21D;56520;49.066;8.660;2023-02-19T12:43:10;12.47;71.21
69359;HTU21D;56520;49.066;8.660;2023-02-19T12:45:40;12.57;70.92
69359;HTU21D;56520;49.066;8.660;2023-02-19T12:48:35;12.40;72.57
69359;HTU21D;56520;49.066;8.660;2023-02-19T12:51:11;12.07;74.99
69359;HTU21D;56520;49.066;8.660;2023-02-19T12:56:09;11.39;77.95
69359;HTU21D;56520;49.066;8.660;2023-02-19T12:59:26;11.32;78.05
69359;HTU21D;56520;49.066;8.660;2023-02-19T13:07:39;11.54;77.71
69359;HTU21D;56520;49.066;8.660;2023-02-19T13:10:32;11.68;77.11
69359;HTU21D;56520;49.066;8.660;2023-02-19T13:13:05;11.81;76.23
69359;HTU21D;56520;49.066;8.660;2023-02-19T13:18:02;12.07;73.74
69359;HTU21D;56520;49.066;8.660;2023-02-19T13:20:35;12.15;72.29
69359;HTU21D;56520;49.066;8.660;2023-02-19T13:34:52;12.55;70.90
69359;HTU21D;56520;49.066;8.660;2023-02-19T13:37:21;12.55;70.58
69359;HTU21D;56520;49.066;8.660;2023-02-19T13:39:51;12.49;70.13
69359;HTU21D;56520;49.066;8.660;2023-02-19T13:42:30;12.46;69.45
69359;HTU21D;56520;49.066;8.660;2023-02-19T13:44:57;12.33;69.83
69359;HTU21D;56520;49.066;8.660;2023-02-19T13:52:50;12.45;69.74
69359;HTU21D;56520;49.066;8.660;2023-02-19T13:55:43;12.55;69.30
69359;HTU21D;56520;49.066;8.660;2023-02-19T14:01:02;12.65;67.76
69359;HTU21D;56520;49.066;8.660;2023-02-19T14:04:05;12.71;66.76
69359;HTU21D;56520;49.066;8.660;2023-02-19T14:25:32;12.60;67.78
69359;HTU21D;56520;49.066;8.660;2023-02-19T14:30:32;12.33;69.20
69359;HTU21D;56520;49.066;8.660;2023-02-19T14:33:00;12.21;69.21
69359;HTU21D;56520;49.066;8.660;2023-02-19T14:35:39;12.10;69.53
69359;HTU21D;56520;49.066;8.660;2023-02-19T14:38:13;12.04;70.16
69359;HTU21D;56520;49.066;8.660;2023-02-19T14:40:41;12.01;70.39
69359;HTU21D;56520;49.066;8.660;2023-02-19T14:43:15;12.04;70.81
69359;HTU21D;56520;49.066;8.660;2023-02-19T14:45:53;12.03;71.11
69359;HTU21D;56520;49.066;8.660;2023-02-19T14:48:38;12.04;70.90
69359;HTU21D;56520;49.066;8.660;2023-02-19T14:51:11;12.04;70.26
69359;HTU21D;56520;49.066;8.660;2023-02-19T14:53:42;11.97;70.99
69359;HTU21D;56520;49.066;8.660;2023-02-19T14:56:22;11.92;70.81
69359;HTU21D;56520;49.066;8.660;2023-02-19T14:59:21;11.87;71.03
69359;HTU21D;56520;49.066;8.660;2023-02-19T15:04:24;11.77;71.50
69359;HTU21D;56520;49.066;8.660;2023-02-19T15:06:51;11.72;71.53
69359;HTU21D;56520;49.066;8.660;2023-02-19T15:09:18;11.70;71.97
69359;HTU21D;56520;49.066;8.660;2023-02-19T15:11:45;11.70;71.43
69359;HTU21D;56520;49.066;8.660;2023-02-19T15:14:18;11.70;70.30
69359;HTU21D;56520;49.066;8.660;2023-02-19T15:16:45;11.61;70.77
69359;HTU21D;56520;49.066;8.660;2023-02-19T15:19:12;11.56;70.67
69359;HTU21D;56520;49.066;8.660;2023-02-19T15:21:44;11.48;70.39
69359;HTU21D;56520;49.066;8.660;2023-02-19T15:24:13;11.36;71.02
69359;HTU21D;56520;49.066;8.660;2023-02-19T15:26:42;11.27;71.19
69359;HTU21D;56520;49.066;8.660;2023-02-19T15:29:22;11.23;71.18
69359;HTU21D;56520;49.066;8.660;2023-02-19T15:31:56;11.15;71.60
69359;HTU21D;56520;49.066;8.660;2023-02-19T15:34:31;11.09;71.31
69359;HTU21D;56520;49.066;8.660;2023-02-19T15:37:03;11.03;71.38
69359;HTU21D;56520;49.066;8.660;2023-02-19T15:39:40;10.93;72.10
69359;HTU21D;56520;49.066;8.660;2023-02-19T15:42:13;10.87;72.63
69359;HTU21D;56520;49.066;8.660;2023-02-19T15:44:42;10.85;72.69
69359;HTU21D;56520;49.066;8.660;2023-02-19T15:47:14;10.90;72.45
69359;HTU21D;56520;49.066;8.660;2023-02-19T15:49:51;10.87;72.93
69359;HTU21D;56520;49.066;8.660;2023-02-19T15:57:40;10.78;73.93
69359;HTU21D;56520;49.066;8.660;2023-02-19T16:03:05;10.71;74.30
69359;HTU21D;56520;49.066;8.660;2023-02-19T16:05:32;10.70;74.44
69359;HTU21D;56520;49.066;8.660;2023-02-19T16:08:16;10.67;74.49
69359;HTU21D;56520;49.066;8.660;2023-02-19T16:10:55;10.58;75.05
69359;HTU21D;56520;49.066;8.660;2023-02-19T16:13:26;10.58;75.20
69359;HTU21D;56520;49.066;8.660;2023-02-19T16:15:59;10.57;75.21
69359;HTU21D;56520;49.066;8.660;2023-02-19T16:18:27;10.46;75.67
69359;HTU21D;56520;49.066;8.660;2023-02-19T16:20:53;10.42;75.90
69359;HTU21D;56520;49.066;8.660;2023-02-19T16:23:19;10.42;75.83
69359;HTU21D;56520;49.066;8.660;2023-02-19T16:25:48;10.34;76.53
69359;HTU21D;56520;49.066;8.660;2023-02-19T16:28:22;10.26;76.75
69359;HTU21D;56520;49.066;8.660;2023-02-19T16:31:06;10.28;76.58
69359;HTU21D;56520;49.066;8.660;2023-02-19T16:33:43;10.29;76.42
69359;HTU21D;56520;49.066;8.660;2023-02-19T16:36:34;10.23;76.62
69359;HTU21D;56520;49.066;8.660;2023-02-19T16:39:14;10.22;76.64
69359;HTU21D;56520;49.066;8.660;2023-02-19T16:46:53;10.13;76.64
69359;HTU21D;56520;49.066;8.660;2023-02-19T16:49:20;10.12;76.65
69359;HTU21D;56520;49.066;8.660;2023-02-19T16:51:47;10.08;76.90
69359;HTU21D;56520;49.066;8.660;2023-02-19T16:54:12;10.15;76.59
69359;HTU21D;56520;49.066;8.660;2023-02-19T16:56:38;10.11;76.60
69359;HTU21D;56520;49.066;8.660;2023-02-19T16:59:03;10.01;77.06
69359;HTU21D;56520;49.066;8.660;2023-02-19T17:01:30;10.00;77.30
69359;HTU21D;56520;49.066;8.660;2023-02-19T17:04:02;10.00;77.22
69359;HTU21D;56520;49.066;8.660;2023-02-19T17:06:28;10.01;77.16
69359;HTU21D;56520;49.066;8.660;2023-02-19T17:08:54;9.96;77.47
69359;HTU21D;56520;49.066;8.660;2023-02-19T17:11:20;9.93;77.47
69359;HTU21D;56520;49.066;8.660;2023-02-19T17:13:45;9.93;77.42
69359;HTU21D;56520;49.066;8.660;2023-02-19T17:16:19;9.94;77.23
69359;HTU21D;56520;49.066;8.660;2023-02-19T17:18:45;9.93;77.48
69359;HTU21D;56520;49.066;8.660;2023-02-19T17:21:20;9.92;77.35
69359;HTU21D;56520;49.066;8.660;2023-02-19T17:23:47;9.86;77.85
69359;HTU21D;56520;49.066;8.660;2023-02-19T17:26:14;9.92;77.50
69359;HTU21D;56520;49.066;8.660;2023-02-19T17:28:40;9.89;77.56
69359;HTU21D;56520;49.066;8.660;2023-02-19T17:31:05;9.83;78.03
69359;HTU21D;56520;49.066;8.660;2023-02-19T17:33:31;9.78;78.11
69359;HTU21D;56520;49.066;8.660;2023-02-19T17:35:56;9.72;78.53
69359;HTU21D;56520;49.066;8.660;2023-02-19T17:38:22;9.72;78.60
69359;HTU21D;56520;49.066;8.660;2023-02-19T17:40:48;9.69;78.47
69359;HTU21D;56520;49.066;8.660;2023-02-19T17:43:13;9.69;78.46
69359;HTU21D;56520;49.066;8.660;2023-02-19T17:45:38;9.70;78.24
69359;HTU21D;56520;49.066;8.660;2023-02-19T17:48:04;9.74;78.11
69359;HTU21D;56520;49.066;8.660;2023-02-19T17:50:31;9.78;78.01
69359;HTU21D;56520;49.066;8.660;2023-02-19T17:52:57;9.72;78.23
69359;HTU21D;56520;49.066;8.660;2023-02-19T17:55:23;9.68;78.34
69359;HTU21D;56520;49.066;8.660;2023-02-19T17:57:50;9.69;78.34
69359;HTU21D;56520;49.066;8.660;2023-02-19T18:00:18;9.65;78.53